New Shoreham, Rhode Island
Current Conditions -  °F | °C
As of 8:35 PM on Tuesday 21 Oct 2014 (Local Time) from KBID Reporting Station
Clear Clear  
Wind Chill: 61°   Ceiling: Unl
Heat Index: 61°   Visibility: 10mi
Dew Point: 55°   Wind: 3mph
Humidity: 82%   Direction: 80°E
Pressure: 29.9"   Gusts: NA
Location:  41.1768°N, 71.5785°W
Report Text: KBID 220035Z AUTO 08003KT 10SM CLR 16/13 A2990 RMK AO1
Loading
Personal Weather Stations






























Interactive Weather Map New forecast layout! Learn more

10-Day Weather Forecast

Advertisements
Track Severe Weather on mobile